Terminal Aerodrome Forecast
Issued by NWS St Louis, MO

Home | Current Version | Previous Version | Text Only | Print | Product List | Glossary On
Versions: 1 2 3 4 5 6 7 8
481
FTUS43 KLSX 232320
TAFCOU
TAF
KCOU 232320Z 2400/2424 08007KT P6SM SKC
     FM240200 VRB04KT P6SM SKC
     FM241600 17010KT P6SM FEW250=

USA.gov is the U.S. government's official web portal to all federal, state and local government web resources and services.